Time;durP1;ratioP1;P1;durP2;ratioP2;P2;SDS_P1;SDS_P2;PMS_P1;PMS_P2;Temp;Humidity;BMP_temperature;BMP_pressure;BME280_temperature;BME280_humidity;BME280_pressure;Samples;Min_cycle;Max_cycle;Signal;HPM_P1;HPM_P2
2023/09/09 00:02:09;;;;;;;18.70;10.40;;;538.00;2406.40;;;;;;4949092;29;20035;-72
2023/09/09 00:04:35;;;;;;;14.80;9.95;;;538.00;2406.40;;;;;;4943901;29;20370;-72
2023/09/09 00:07:03;;;;;;;17.75;9.90;;;538.00;2406.40;;;;;;4952397;29;20055;-72
2023/09/09 00:09:31;;;;;;;12.65;9.63;;;537.90;2406.40;;;;;;4936178;29;20089;-72
2023/09/09 00:11:57;;;;;;;17.92;10.45;;;538.00;2406.40;;;;;;4950798;29;20031;-72
2023/09/09 00:14:24;;;;;;;15.73;10.10;;;538.00;2406.40;;;;;;4948994;29;20039;-73
2023/09/09 00:16:49;;;;;;;12.23;9.82;;;537.90;2406.40;;;;;;4953572;29;20034;-72
2023/09/09 00:19:16;;;;;;;16.42;10.13;;;537.90;2406.40;;;;;;4951267;28;20415;-71
2023/09/09 00:21:42;;;;;;;17.60;10.55;;;537.80;2406.40;;;;;;4951790;29;20511;-73
2023/09/09 00:24:08;;;;;;;16.98;10.15;;;537.70;2406.40;;;;;;4957841;29;20039;-72
2023/09/09 00:26:34;;;;;;;13.88;9.40;;;512.90;2380.80;;;;;;4950448;29;20038;-72
2023/09/09 00:28:59;;;;;;;23.20;10.68;;;512.90;2380.80;;;;;;4953240;29;20027;-72
2023/09/09 00:31:25;;;;;;;14.48;10.90;;;512.90;2380.80;;;;;;4932869;29;20126;-72
2023/09/09 00:33:52;;;;;;;16.33;10.00;;;512.90;2380.80;;;;;;4946715;29;20038;-72
2023/09/09 00:36:18;;;;;;;16.20;9.40;;;512.80;2380.80;;;;;;4950027;29;20144;-72
2023/09/09 00:38:43;;;;;;;14.63;9.45;;;512.60;2380.80;;;;;;4950151;29;20106;-72
2023/09/09 00:41:17;;;;;;;14.23;10.02;;;512.70;2380.80;;;;;;4945659;29;20039;-72
2023/09/09 00:43:44;;;;;;;15.80;10.63;;;512.60;2380.80;;;;;;4947307;29;20020;-72
2023/09/09 00:46:11;;;;;;;17.92;9.93;;;512.40;2380.80;;;;;;4955130;29;20030;-72
2023/09/09 00:48:38;;;;;;;22.10;10.10;;;512.30;2380.80;;;;;;4955504;29;20038;-72
2023/09/09 00:51:11;;;;;;;17.75;10.00;;;512.20;2380.80;;;;;;4953014;29;20024;-71
2023/09/09 00:53:37;;;;;;;14.50;9.70;;;512.10;2380.80;;;;;;4952513;29;20067;-72
2023/09/09 00:56:05;;;;;;;15.85;9.90;;;512.10;2380.80;;;;;;4951214;29;20074;-72
2023/09/09 00:58:31;;;;;;;19.65;10.85;;;487.30;2380.80;;;;;;4954874;29;20039;-72
2023/09/09 01:00:58;;;;;;;16.73;10.10;;;487.30;2380.80;;;;;;4933042;29;20039;-72
2023/09/09 01:03:24;;;;;;;16.55;9.98;;;487.30;2380.80;;;;;;4950040;29;20027;-72
2023/09/09 01:05:50;;;;;;;18.85;11.25;;;512.00;2380.80;;;;;;4950353;29;20038;-72
2023/09/09 01:08:26;;;;;;;15.43;10.55;;;512.10;2380.80;;;;;;4950583;29;20098;-72
2023/09/09 01:10:53;;;;;;;18.38;10.30;;;512.10;2380.80;;;;;;4945522;29;20055;-73
2023/09/09 01:13:19;;;;;;;17.25;10.30;;;512.20;2380.80;;;;;;4954548;29;20038;-72
2023/09/09 01:15:45;;;;;;;16.08;10.05;;;512.10;2380.80;;;;;;4951644;29;20051;-73
2023/09/09 01:18:11;;;;;;;21.10;9.98;;;512.10;2380.80;;;;;;4951712;29;20527;-73
2023/09/09 01:20:40;;;;;;;16.42;10.20;;;512.10;2380.80;;;;;;4932404;29;20054;-72
2023/09/09 01:23:06;;;;;;;15.65;10.63;;;512.20;2380.80;;;;;;4954134;29;20031;-72
2023/09/09 01:25:32;;;;;;;15.23;11.15;;;512.00;2380.80;;;;;;4950826;29;20055;-73
2023/09/09 01:27:59;;;;;;;16.70;9.95;;;487.20;2380.80;;;;;;4945746;29;20019;-72
2023/09/09 01:30:25;;;;;;;17.38;11.15;;;512.00;2380.80;;;;;;4953401;28;20110;-73
2023/09/09 01:32:50;;;;;;;18.35;11.25;;;487.30;2380.80;;;;;;4942277;29;20059;-73
2023/09/09 01:35:16;;;;;;;18.55;10.13;;;487.30;2380.80;;;;;;4954458;29;20428;-72
2023/09/09 01:37:42;;;;;;;18.25;9.73;;;487.20;2380.80;;;;;;4942371;29;20027;-72
2023/09/09 01:40:12;;;;;;;15.82;10.48;;;487.10;2380.80;;;;;;4952080;29;20032;-72
2023/09/09 01:42:38;;;;;;;18.92;10.18;;;487.00;2380.80;;;;;;4940156;29;20016;-71
2023/09/09 01:45:04;;;;;;;15.90;9.82;;;487.10;2380.80;;;;;;4949512;29;20096;-73
2023/09/09 01:47:30;;;;;;;18.65;10.48;;;487.00;2380.80;;;;;;4957090;29;20019;-72
2023/09/09 01:49:56;;;;;;;16.88;9.93;;;487.10;2380.80;;;;;;4954309;29;20027;-72
2023/09/09 01:52:22;;;;;;;16.48;9.68;;;487.10;2380.80;;;;;;4937843;29;20051;-73
2023/09/09 01:54:47;;;;;;;17.25;11.30;;;487.10;2380.80;;;;;;4937672;29;20481;-72
2023/09/09 01:57:16;;;;;;;13.48;9.60;;;487.20;2380.80;;;;;;4936487;29;20027;-73
2023/09/09 01:59:42;;;;;;;16.38;10.48;;;487.20;2380.80;;;;;;4937654;29;20119;-73
2023/09/09 02:02:08;;;;;;;19.27;10.02;;;487.20;2380.80;;;;;;4920844;29;20042;-74
2023/09/09 02:04:34;;;;;;;16.70;10.65;;;487.10;2380.80;;;;;;4920696;29;20127;-72
2023/09/09 02:06:59;;;;;;;13.95;9.80;;;487.20;2380.80;;;;;;4937634;29;20024;-72
2023/09/09 02:09:25;;;;;;;14.40;9.82;;;487.00;2380.80;;;;;;4937559;29;20066;-74
2023/09/09 02:11:51;;;;;;;19.55;9.98;;;487.00;2380.80;;;;;;4937486;29;20052;-73
2023/09/09 02:14:17;;;;;;;12.77;9.60;;;486.90;2380.80;;;;;;4936259;29;20111;-72
2023/09/09 02:16:42;;;;;;;15.10;10.32;;;486.90;2380.80;;;;;;4937279;29;20031;-73
2023/09/09 02:19:08;;;;;;;13.45;10.38;;;486.90;2380.80;;;;;;4937118;29;20468;-76
2023/09/09 02:21:34;;;;;;;13.38;10.13;;;486.80;2380.80;;;;;;4937303;29;20128;-73
2023/09/09 02:23:59;;;;;;;17.27;10.07;;;486.80;2380.80;;;;;;4936980;29;20047;-72
2023/09/09 02:26:25;;;;;;;18.63;10.77;;;486.80;2380.80;;;;;;4937103;29;20036;-73
2023/09/09 02:28:51;;;;;;;14.77;9.93;;;486.60;2380.80;;;;;;4937149;29;20024;-73
2023/09/09 02:31:17;;;;;;;16.25;10.57;;;486.90;2380.80;;;;;;4936997;29;20078;-72
2023/09/09 02:33:43;;;;;;;14.18;9.60;;;486.80;2380.80;;;;;;4935936;29;20038;-71
2023/09/09 02:36:08;;;;;;;23.33;10.60;;;486.90;2380.80;;;;;;4936988;29;20051;-72
2023/09/09 02:38:35;;;;;;;20.08;11.23;;;486.80;2380.80;;;;;;4936957;29;20036;-72
2023/09/09 02:41:01;;;;;;;21.35;10.48;;;486.80;2380.80;;;;;;4936324;29;20043;-72
2023/09/09 02:43:27;;;;;;;16.45;10.93;;;487.00;2380.80;;;;;;4936329;29;20019;-73
2023/09/09 02:45:52;;;;;;;21.20;11.35;;;487.00;2380.80;;;;;;4936652;29;20038;-72
2023/09/09 02:48:18;;;;;;;19.35;10.18;;;487.00;2380.80;;;;;;4936802;29;20042;-72
2023/09/09 02:50:44;;;;;;;17.13;11.52;;;487.10;2380.80;;;;;;4936583;29;20055;-72
2023/09/09 02:53:09;;;;;;;17.98;12.02;;;487.10;2380.80;;;;;;4936741;29;20387;-71
2023/09/09 02:55:35;;;;;;;17.73;11.38;;;487.00;2380.80;;;;;;4936782;29;20084;-72
2023/09/09 02:58:01;;;;;;;18.55;11.68;;;487.10;2380.80;;;;;;4936708;29;20028;-73
2023/09/09 03:00:26;;;;;;;17.95;11.45;;;487.10;2380.80;;;;;;4936243;29;20043;-73
2023/09/09 03:02:52;;;;;;;20.88;11.15;;;487.00;2380.80;;;;;;4935965;29;20051;-73
2023/09/09 03:05:18;;;;;;;18.85;10.70;;;486.80;2380.80;;;;;;4935933;29;20031;-73
2023/09/09 03:07:48;;;;;;;14.63;10.77;;;486.90;2380.80;;;;;;4935709;29;20563;-73
2023/09/09 03:10:14;;;;;;;17.63;11.38;;;486.80;2380.80;;;;;;4935706;29;20035;-73
2023/09/09 03:12:40;;;;;;;16.90;10.60;;;486.80;2380.80;;;;;;4935876;29;20042;-73
2023/09/09 03:15:06;;;;;;;15.85;10.68;;;486.80;2380.80;;;;;;4933899;29;20484;-73
2023/09/09 03:17:32;;;;;;;14.32;9.65;;;486.70;2380.80;;;;;;4935666;29;20106;-73
2023/09/09 03:19:58;;;;;;;20.42;10.00;;;486.80;2380.80;;;;;;4934649;29;20035;-73
2023/09/09 03:22:24;;;;;;;18.35;10.27;;;486.70;2380.80;;;;;;4935454;29;20487;-74
2023/09/09 03:24:50;;;;;;;15.48;9.48;;;486.50;2380.80;;;;;;4935267;29;20060;-73
2023/09/09 03:27:16;;;;;;;18.77;10.20;;;486.40;2380.80;;;;;;4935545;29;20034;-72
2023/09/09 03:29:42;;;;;;;15.25;9.63;;;461.70;2380.80;;;;;;4935634;29;20031;-73
2023/09/09 03:32:08;;;;;;;16.80;10.25;;;461.70;2380.80;;;;;;4935264;29;20477;-73
2023/09/09 03:34:33;;;;;;;23.42;10.15;;;461.50;2380.80;;;;;;4934196;29;20058;-73
2023/09/09 03:36:59;;;;;;;15.25;9.43;;;461.50;2380.80;;;;;;4935368;29;20024;-74
2023/09/09 03:39:25;;;;;;;18.42;9.02;;;461.70;2380.80;;;;;;4935430;29;20150;-73
2023/09/09 03:41:51;;;;;;;14.73;8.93;;;461.60;2380.80;;;;;;4935208;29;20129;-73
2023/09/09 03:44:16;;;;;;;15.00;9.02;;;461.70;2380.80;;;;;;4935529;29;20035;-73
2023/09/09 03:46:42;;;;;;;15.20;9.48;;;461.70;2380.80;;;;;;4935231;29;20035;-73
2023/09/09 03:49:08;;;;;;;15.23;9.73;;;461.70;2380.80;;;;;;4935243;29;20440;-73
2023/09/09 03:51:33;;;;;;;17.23;9.88;;;461.70;2380.80;;;;;;4935358;29;20055;-73
2023/09/09 03:54:00;;;;;;;14.63;9.55;;;461.70;2380.80;;;;;;4934738;29;20381;-73
2023/09/09 03:56:26;;;;;;;12.55;9.23;;;461.70;2380.80;;;;;;4918330;29;20028;-73
2023/09/09 03:58:51;;;;;;;12.55;9.15;;;486.40;2380.80;;;;;;4934979;29;20502;-74
2023/09/09 04:01:18;;;;;;;19.58;9.88;;;486.40;2380.80;;;;;;4935054;29;20032;-73
2023/09/09 04:03:43;;;;;;;13.35;8.80;;;486.40;2380.80;;;;;;4935157;29;20028;-73
2023/09/09 04:06:11;;;;;;;23.80;10.13;;;486.50;2380.80;;;;;;4935008;29;20098;-73
2023/09/09 04:08:38;;;;;;;24.55;10.95;;;486.40;2380.80;;;;;;4935070;29;20373;-73
2023/09/09 04:11:04;;;;;;;16.10;9.52;;;461.70;2380.80;;;;;;4935290;29;20155;-73
2023/09/09 04:13:30;;;;;;;13.40;9.82;;;461.70;2380.80;;;;;;4935306;29;20038;-73
2023/09/09 04:15:57;;;;;;;15.18;9.65;;;461.60;2380.80;;;;;;4934999;29;20060;-73
2023/09/09 04:18:24;;;;;;;16.45;9.40;;;461.70;2380.80;;;;;;4935068;29;20087;-73
2023/09/09 04:20:50;;;;;;;14.52;9.60;;;486.40;2380.80;;;;;;4934854;29;20098;-73
2023/09/09 04:23:17;;;;;;;16.73;9.88;;;486.50;2380.80;;;;;;4934551;29;20144;-74
2023/09/09 04:25:46;;;;;;;18.65;9.82;;;486.50;2380.80;;;;;;4934846;29;20047;-72
2023/09/09 04:28:13;;;;;;;16.48;9.57;;;486.50;2380.80;;;;;;4935021;29;20175;-74
2023/09/09 04:30:40;;;;;;;22.17;10.25;;;486.40;2380.80;;;;;;4934877;29;20063;-72
2023/09/09 04:33:11;;;;;;;21.00;9.88;;;486.40;2380.80;;;;;;4917899;29;20099;-73
2023/09/09 04:35:42;;;;;;;16.50;10.15;;;486.40;2380.80;;;;;;4934815;29;20427;-73
2023/09/09 04:38:09;;;;;;;15.57;9.73;;;486.50;2380.80;;;;;;4934894;29;20031;-73
2023/09/09 04:40:36;;;;;;;19.75;9.63;;;486.50;2380.80;;;;;;4934621;29;20459;-73
2023/09/09 04:43:02;;;;;;;19.98;9.75;;;486.60;2380.80;;;;;;4934967;29;20024;-73
2023/09/09 04:45:27;;;;;;;16.92;10.35;;;486.60;2380.80;;;;;;4940149;29;20083;-71
2023/09/09 04:47:53;;;;;;;14.80;9.25;;;486.50;2380.80;;;;;;4928861;29;20035;-71
2023/09/09 04:50:19;;;;;;;22.20;9.73;;;486.70;2380.80;;;;;;4946996;29;20102;-72
2023/09/09 04:52:45;;;;;;;15.35;9.65;;;486.70;2380.80;;;;;;4952207;29;20538;-72
2023/09/09 04:55:12;;;;;;;16.67;10.50;;;486.70;2380.80;;;;;;4951317;29;20027;-72
2023/09/09 04:57:38;;;;;;;16.60;9.50;;;486.70;2380.80;;;;;;4940258;29;20019;-75
2023/09/09 05:00:07;;;;;;;26.90;10.35;;;486.80;2380.80;;;;;;4929229;29;20056;-74
2023/09/09 05:02:33;;;;;;;16.83;10.50;;;486.80;2380.80;;;;;;4947936;28;20400;-76
2023/09/09 05:04:59;;;;;;;16.50;10.00;;;486.80;2380.80;;;;;;4948425;28;20043;-74
2023/09/09 05:07:25;;;;;;;15.10;10.40;;;486.90;2380.80;;;;;;4953979;29;20027;-74
2023/09/09 05:09:50;;;;;;;12.27;10.05;;;487.00;2380.80;;;;;;4951382;29;20082;-74
2023/09/09 05:12:16;;;;;;;15.40;9.32;;;487.00;2380.80;;;;;;4946621;29;20472;-73
2023/09/09 05:14:42;;;;;;;14.40;9.50;;;487.00;2380.80;;;;;;4927407;29;20043;-72
2023/09/09 05:17:08;;;;;;;14.75;9.05;;;487.00;2380.80;;;;;;4952374;29;20501;-73
2023/09/09 05:19:34;;;;;;;16.83;10.35;;;487.00;2380.80;;;;;;4944722;29;20066;-74
2023/09/09 05:21:59;;;;;;;16.60;10.13;;;487.20;2380.80;;;;;;4948788;29;20368;-74
2023/09/09 05:24:25;;;;;;;19.63;13.10;;;487.30;2380.80;;;;;;4951082;29;20055;-73
2023/09/09 05:26:51;;;;;;;24.20;13.77;;;487.30;2380.80;;;;;;4951291;29;20032;-73
2023/09/09 05:29:16;;;;;;;27.55;17.38;;;512.00;2380.80;;;;;;4954365;29;20030;-74
2023/09/09 05:31:42;;;;;;;42.35;22.75;;;512.10;2380.80;;;;;;4950936;29;20392;-73
2023/09/09 05:34:08;;;;;;;39.25;22.30;;;512.10;2380.80;;;;;;4934013;29;20023;-73
2023/09/09 05:36:33;;;;;;;40.75;25.85;;;512.20;2380.80;;;;;;4951174;29;20056;-72
2023/09/09 05:38:59;;;;;;;43.92;24.90;;;512.30;2380.80;;;;;;4951488;29;20031;-73
2023/09/09 05:41:29;;;;;;;42.88;23.30;;;512.40;2380.80;;;;;;4952467;29;20095;-73
2023/09/09 05:43:55;;;;;;;41.80;25.20;;;512.40;2380.80;;;;;;4950502;29;20015;-72
2023/09/09 05:46:21;;;;;;;38.30;22.58;;;512.50;2380.80;;;;;;4950882;29;20129;-74
2023/09/09 05:48:47;;;;;;;40.78;22.67;;;512.60;2380.80;;;;;;4955360;29;20066;-72
2023/09/09 05:51:12;;;;;;;38.95;23.20;;;512.70;2380.80;;;;;;4950653;29;20070;-72
2023/09/09 05:53:39;;;;;;;37.50;23.92;;;512.80;2380.80;;;;;;4954409;29;20028;-72
2023/09/09 05:56:05;;;;;;;33.03;23.83;;;512.90;2380.80;;;;;;4930270;29;20078;-73
2023/09/09 05:58:30;;;;;;;35.13;21.60;;;537.60;2406.40;;;;;;4950214;29;20043;-75
2023/09/09 06:00:56;;;;;;;29.77;19.95;;;537.80;2406.40;;;;;;4951481;29;20042;-75
2023/09/09 06:03:22;;;;;;;25.65;15.23;;;537.90;2406.40;;;;;;4944128;29;20487;-76
2023/09/09 06:05:48;;;;;;;17.23;13.13;;;538.00;2406.40;;;;;;4950389;29;20106;-77
2023/09/09 06:08:14;;;;;;;24.35;13.73;;;538.00;2406.40;;;;;;4949400;29;20139;-74
2023/09/09 06:10:40;;;;;;;17.70;11.63;;;538.20;2406.40;;;;;;4944212;29;20055;-74
2023/09/09 06:13:05;;;;;;;24.67;11.60;;;538.30;2406.40;;;;;;4944076;29;20035;-74
2023/09/09 06:15:31;;;;;;;19.10;9.95;;;538.50;2406.40;;;;;;4945322;29;20031;-74
2023/09/09 06:17:57;;;;;;;18.13;10.35;;;563.20;2432.00;;;;;;4932450;29;20027;-73
2023/09/09 06:20:23;;;;;;;15.43;9.60;;;;;;;;;;4951148;29;20035;-74
2023/09/09 06:22:49;;;;;;;14.48;9.55;;;563.60;2432.00;;;;;;4950529;28;20023;-74
2023/09/09 06:25:15;;;;;;;15.70;9.50;;;563.60;2432.00;;;;;;4950124;29;20051;-74
2023/09/09 06:27:41;;;;;;;15.55;9.43;;;563.70;2432.00;;;;;;4950147;29;20506;-73
2023/09/09 06:30:07;;;;;;;16.73;9.43;;;563.90;2432.00;;;;;;4944462;29;20039;-72
2023/09/09 06:32:32;;;;;;;11.18;8.38;;;588.90;2432.00;;;;;;4949033;29;20535;-73
2023/09/09 06:34:58;;;;;;;10.80;7.88;;;588.90;2432.00;;;;;;4949154;29;20032;-73
2023/09/09 06:37:24;;;;;;;17.10;7.70;;;589.00;2432.00;;;;;;4949739;29;20028;-72
2023/09/09 06:39:50;;;;;;;12.95;6.57;;;589.20;2432.00;;;;;;4951670;29;20066;-73
2023/09/09 06:42:15;;;;;;;12.93;7.07;;;589.10;2432.00;;;;;;4945059;29;20435;-74
2023/09/09 06:44:41;;;;;;;14.70;6.30;;;589.30;2432.00;;;;;;4947894;29;20039;-73
2023/09/09 06:47:10;;;;;;;13.50;6.03;;;589.30;2432.00;;;;;;4939122;29;20051;-73
2023/09/09 06:49:36;;;;;;;12.07;5.75;;;;;;;;;;4953780;29;20030;-74
2023/09/09 06:52:02;;;;;;;12.23;6.53;;;;;;;;;;4946820;29;20046;-73
2023/09/09 06:54:28;;;;;;;11.30;6.30;;;;;;;;;;4948963;29;20043;-74
2023/09/09 06:56:53;;;;;;;11.85;6.20;;;614.70;2432.00;;;;;;4943909;28;20036;-73
2023/09/09 06:59:19;;;;;;;15.45;6.65;;;614.80;2432.00;;;;;;4941072;29;20086;-74
2023/09/09 07:01:45;;;;;;;12.02;7.03;;;615.00;2432.00;;;;;;4946141;29;20023;-73
2023/09/09 07:04:10;;;;;;;21.48;7.70;;;615.20;2432.00;;;;;;4939592;29;20031;-74
2023/09/09 07:06:36;;;;;;;9.98;5.72;;;;;;;;;;4938701;28;20484;-74
2023/09/09 07:09:02;;;;;;;11.25;4.80;;;640.10;2329.60;;;;;;4948189;29;20388;-73
2023/09/09 07:11:28;;;;;;;10.68;4.80;;;640.00;2278.40;;;;;;4938949;29;20023;-71
2023/09/09 07:13:54;;;;;;;12.68;5.03;;;640.30;2176.00;;;;;;4928849;29;20035;-73
2023/09/09 07:16:21;;;;;;;16.52;5.40;;;640.70;2176.00;;;;;;4942868;29;20023;-73
2023/09/09 07:18:47;;;;;;;9.52;5.05;;;640.80;2099.20;;;;;;4946268;29;20111;-73
2023/09/09 07:21:13;;;;;;;9.90;4.57;;;665.60;2099.20;;;;;;4947136;29;20114;-74
2023/09/09 07:23:38;;;;;;;15.18;4.55;;;666.00;1945.60;;;;;;4945243;28;20039;-75
2023/09/09 07:26:04;;;;;;;15.82;4.72;;;666.20;1920.00;;;;;;4932799;29;20031;-74
2023/09/09 07:28:30;;;;;;;13.52;4.90;;;666.50;1843.20;;;;;;4934198;29;20035;-74
2023/09/09 07:31:01;;;;;;;8.05;4.57;;;691.20;1843.20;;;;;;4945810;29;20020;-74
2023/09/09 07:33:27;;;;;;;8.40;4.63;;;691.20;1817.60;;;;;;4944026;29;20038;-74
2023/09/09 07:35:53;;;;;;;9.30;4.30;;;691.20;1817.60;;;;;;4947149;29;20023;-75
2023/09/09 07:38:19;;;;;;;7.15;4.18;;;691.30;1766.40;;;;;;4946182;29;20188;-75
2023/09/09 07:40:44;;;;;;;10.73;5.20;;;691.60;1689.60;;;;;;4922228;29;20039;-74
2023/09/09 07:43:10;;;;;;;8.85;4.38;;;691.90;1638.40;;;;;;4947442;29;20031;-74
2023/09/09 07:45:36;;;;;;;11.98;4.45;;;691.90;1664.00;;;;;;4937025;29;20078;-73
2023/09/09 07:48:02;;;;;;;13.65;4.65;;;691.80;1664.00;;;;;;4947002;29;20103;-74
2023/09/09 07:50:28;;;;;;;9.10;4.68;;;692.10;1664.00;;;;;;4935489;29;20072;-74
2023/09/09 07:52:54;;;;;;;7.05;4.22;;;716.90;1638.40;;;;;;4950226;28;20050;-74
2023/09/09 07:55:19;;;;;;;9.60;4.35;;;717.20;1612.80;;;;;;4946198;29;20484;-74
2023/09/09 07:57:45;;;;;;;9.68;4.07;;;717.40;1612.80;;;;;;4948342;29;20032;-74
2023/09/09 08:00:11;;;;;;;14.23;4.38;;;717.10;1612.80;;;;;;4937818;29;20058;-75
2023/09/09 08:02:37;;;;;;;11.50;4.40;;;717.30;1612.80;;;;;;4933602;29;20027;-74
2023/09/09 08:05:06;;;;;;;20.85;4.55;;;717.50;1612.80;;;;;;4929561;29;20035;-74
2023/09/09 08:07:32;;;;;;;10.45;4.50;;;717.50;1612.80;;;;;;4948705;29;20354;-73
2023/09/09 08:09:58;;;;;;;18.08;5.35;;;742.40;1612.80;;;;;;4949158;29;20026;-73
2023/09/09 08:12:24;;;;;;;8.07;5.03;;;717.50;1612.80;;;;;;4947577;29;20028;-74
2023/09/09 08:15:03;;;;;;;9.50;5.75;;;742.70;1587.20;;;;;;4949563;29;20031;-74
2023/09/09 08:17:29;;;;;;;16.05;5.65;;;742.80;1587.20;;;;;;4945696;29;20019;-73
2023/09/09 08:19:54;;;;;;;16.23;5.78;;;743.00;1561.60;;;;;;4941532;29;20045;-75
2023/09/09 08:22:20;;;;;;;19.90;5.55;;;743.30;1536.00;;;;;;4947490;29;20024;-74
2023/09/09 08:24:46;;;;;;;14.60;5.55;;;743.00;1561.60;;;;;;4949990;29;20063;-74
2023/09/09 08:27:13;;;;;;;12.07;4.40;;;743.30;1510.40;;;;;;4947638;29;20114;-74
2023/09/09 08:29:39;;;;;;;9.45;5.13;;;768.40;1484.80;;;;;;4933726;29;20028;-75
2023/09/09 08:32:05;;;;;;;17.92;5.07;;;768.30;1433.60;;;;;;4944894;29;20051;-73
2023/09/09 08:34:30;;;;;;;11.10;5.95;;;768.60;1408.00;;;;;;4950838;29;20151;-74
2023/09/09 08:36:56;;;;;;;6.13;3.70;;;768.90;1382.40;;;;;;4943133;29;20027;-73
2023/09/09 08:39:22;;;;;;;9.02;4.28;;;793.90;1408.00;;;;;;4946937;28;20034;-76
2023/09/09 08:41:58;;;;;;;6.40;3.85;;;793.70;1382.40;;;;;;4948311;29;20495;-74
2023/09/09 08:45:16;;;;;;;8.55;4.53;;;794.00;1331.20;;;;;;4936205;29;20028;-74
2023/09/09 08:47:44;;;;;;;10.63;4.13;;;794.10;1382.40;;;;;;4874224;29;20120;-75
2023/09/09 08:50:13;;;;;;;7.88;4.47;;;794.20;1356.80;;;;;;4876667;29;20064;-76
2023/09/09 08:52:41;;;;;;;11.93;4.55;;;794.20;1356.80;;;;;;4876213;29;20040;-74
2023/09/09 08:55:08;;;;;;;10.40;4.03;;;794.30;1331.20;;;;;;4865878;29;20025;-73
2023/09/09 08:57:34;;;;;;;8.18;4.75;;;794.50;1331.20;;;;;;4865290;29;20038;-74
2023/09/09 09:00:05;;;;;;;8.07;4.45;;;794.50;1305.60;;;;;;4871105;29;20387;-74
2023/09/09 09:02:33;;;;;;;12.48;5.00;;;819.30;1280.00;;;;;;4865075;29;20044;-75
2023/09/09 09:04:59;;;;;;;11.10;4.82;;;819.50;1280.00;;;;;;4865336;29;20112;-75
2023/09/09 09:07:27;;;;;;;12.85;4.82;;;819.60;1254.40;;;;;;4850656;29;20116;-74
2023/09/09 09:09:54;;;;;;;11.20;4.40;;;819.60;1280.00;;;;;;4869148;29;20108;-74
2023/09/09 09:12:21;;;;;;;17.42;4.70;;;819.80;1254.40;;;;;;4876031;29;20050;-75
2023/09/09 09:14:47;;;;;;;8.52;3.70;;;819.90;1280.00;;;;;;4872196;29;20061;-74
2023/09/09 09:17:16;;;;;;;13.52;4.63;;;820.00;1254.40;;;;;;4867728;29;20124;-75
2023/09/09 09:19:42;;;;;;;11.48;4.25;;;820.00;1228.80;;;;;;4882592;29;20055;-74
2023/09/09 09:22:08;;;;;;;13.73;3.95;;;844.90;1254.40;;;;;;4872953;29;20095;-72
2023/09/09 09:24:44;;;;;;;6.70;3.83;;;844.90;1177.60;;;;;;4917781;29;20456;-73
2023/09/09 09:27:11;;;;;;;11.35;4.65;;;844.90;1152.00;;;;;;4943511;29;20392;-74
2023/09/09 09:29:42;;;;;;;8.52;3.75;;;845.20;1177.60;;;;;;4944859;29;20469;-74
2023/09/09 09:32:10;;;;;;;7.13;3.53;;;845.20;1152.00;;;;;;4954816;29;20031;-73
2023/09/09 09:34:36;;;;;;;7.32;3.67;;;845.40;1177.60;;;;;;4951767;29;20461;-74
2023/09/09 09:37:12;;;;;;;5.63;3.63;;;845.40;1203.20;;;;;;4948430;29;20106;-73
2023/09/09 09:39:39;;;;;;;11.23;4.03;;;845.70;1203.20;;;;;;4948963;29;20384;-73
2023/09/09 09:42:05;;;;;;;10.60;4.50;;;870.50;1177.60;;;;;;4948124;29;20030;-75
2023/09/09 09:44:31;;;;;;;9.70;4.63;;;870.50;1203.20;;;;;;4951193;29;20030;-74
2023/09/09 09:47:06;;;;;;;9.82;3.88;;;870.50;1203.20;;;;;;4944290;29;20114;-75
2023/09/09 09:49:39;;;;;;;7.68;3.53;;;870.70;1152.00;;;;;;4948242;29;20088;-73
2023/09/09 09:52:06;;;;;;;11.82;4.80;;;870.70;1126.40;;;;;;4941828;29;20028;-73
2023/09/09 09:54:33;;;;;;;16.92;4.40;;;870.90;1177.60;;;;;;4949761;29;20159;-73
2023/09/09 09:57:01;;;;;;;9.52;3.83;;;870.80;1177.60;;;;;;4942914;29;20035;-73
2023/09/09 09:59:35;;;;;;;20.30;4.07;;;870.70;1126.40;;;;;;4943226;29;20496;-73
2023/09/09 10:02:03;;;;;;;7.72;3.38;;;870.70;1177.60;;;;;;4949571;29;20035;-76
2023/09/09 10:04:51;;;;;;;6.55;3.60;;;870.90;1152.00;;;;;;4946075;28;20384;-74
2023/09/09 10:07:23;;;;;;;8.77;3.47;;;871.10;1100.80;;;;;;4944344;29;20047;-74
2023/09/09 10:09:58;;;;;;;6.20;3.70;;;870.90;1100.80;;;;;;4946403;29;20027;-73
2023/09/09 10:12:36;;;;;;;8.43;4.35;;;871.10;1100.80;;;;;;4940481;29;20020;-73
2023/09/09 10:15:04;;;;;;;9.23;3.92;;;870.90;1100.80;;;;;;4944082;29;20042;-74
2023/09/09 10:17:31;;;;;;;10.80;3.92;;;871.10;1100.80;;;;;;4949382;29;20023;-73
2023/09/09 10:20:00;;;;;;;15.50;4.65;;;871.10;1100.80;;;;;;4946859;29;20066;-74
2023/09/09 10:22:27;;;;;;;12.40;4.25;;;871.30;1100.80;;;;;;4940096;29;20031;-74
2023/09/09 10:24:53;;;;;;;8.88;4.45;;;871.30;1100.80;;;;;;4951482;29;20059;-74
2023/09/09 10:27:20;;;;;;;19.15;5.38;;;871.30;1100.80;;;;;;4932341;29;20070;-75
2023/09/09 10:29:47;;;;;;;12.35;4.32;;;896.10;1100.80;;;;;;4945177;29;20027;-75
2023/09/09 10:32:17;;;;;;;16.83;4.07;;;871.30;1075.20;;;;;;4941731;29;20103;-73
2023/09/09 10:34:46;;;;;;;11.20;4.47;;;871.30;1152.00;;;;;;4946508;29;20126;-73
2023/09/09 10:37:13;;;;;;;6.80;3.90;;;871.10;1126.40;;;;;;4947499;29;20063;-74
2023/09/09 10:39:40;;;;;;;6.90;3.67;;;871.30;1126.40;;;;;;4950319;29;20118;-74
2023/09/09 10:42:07;;;;;;;23.30;4.40;;;896.10;1100.80;;;;;;4947560;28;20071;-74
2023/09/09 10:44:32;;;;;;;11.75;5.10;;;896.20;1100.80;;;;;;4948394;29;20031;-73
2023/09/09 10:46:58;;;;;;;12.63;4.30;;;896.10;1100.80;;;;;;4945368;29;20023;-74
2023/09/09 10:49:29;;;;;;;8.65;4.22;;;870.70;1152.00;;;;;;4945411;29;20361;-72
2023/09/09 10:51:55;;;;;;;9.02;3.50;;;871.10;1177.60;;;;;;4947542;29;20023;-74
2023/09/09 10:54:26;;;;;;;7.50;4.00;;;871.10;1126.40;;;;;;4949983;29;20039;-74
2023/09/09 10:56:55;;;;;;;8.73;4.45;;;896.00;1100.80;;;;;;4948950;29;21030;-73
2023/09/09 10:59:27;;;;;;;10.93;4.13;;;896.30;1126.40;;;;;;4946777;29;20045;-74
2023/09/09 11:02:13;;;;;;;12.35;4.43;;;896.20;1100.80;;;;;;4944654;29;20118;-73
2023/09/09 11:04:40;;;;;;;8.68;4.18;;;896.00;1100.80;;;;;;4943752;29;20089;-74
2023/09/09 11:07:08;;;;;;;15.48;4.55;;;896.50;1126.40;;;;;;4948434;29;20461;-74
2023/09/09 11:09:34;;;;;;;9.98;3.97;;;896.30;1024.00;;;;;;4950102;29;20476;-73
2023/09/09 11:12:13;;;;;;;9.25;4.53;;;896.00;1024.00;;;;;;4951774;29;20028;-74
2023/09/09 11:14:45;;;;;;;8.52;4.15;;;896.50;1024.00;;;;;;4947598;29;20024;-72
2023/09/09 11:17:12;;;;;;;5.50;3.85;;;896.80;1024.00;;;;;;4949911;29;20093;-73
2023/09/09 11:19:40;;;;;;;7.03;4.22;;;896.80;1024.00;;;;;;4952854;29;20043;-74
2023/09/09 11:22:06;;;;;;;7.05;3.97;;;921.70;1075.20;;;;;;4946736;29;20032;-74
2023/09/09 11:24:34;;;;;;;7.68;4.50;;;921.60;1024.00;;;;;;4950435;29;20051;-75
2023/09/09 11:27:00;;;;;;;9.07;4.55;;;921.60;1024.00;;;;;;4945182;29;20027;-73
2023/09/09 11:29:25;;;;;;;6.95;4.05;;;921.70;1075.20;;;;;;4945521;29;20027;-73
2023/09/09 11:31:52;;;;;;;9.35;4.10;;;896.90;1024.00;;;;;;4952808;29;20027;-73
2023/09/09 11:34:26;;;;;;;11.43;4.10;;;921.60;998.40;;;;;;4928041;29;20038;-74
2023/09/09 11:36:53;;;;;;;7.85;4.18;;;921.80;998.40;;;;;;4949088;29;20055;-73
2023/09/09 11:39:19;;;;;;;5.95;4.05;;;921.60;1024.00;;;;;;4950746;29;20034;-75
2023/09/09 11:41:45;;;;;;;6.07;4.10;;;921.90;1100.80;;;;;;4944700;29;20023;-73
2023/09/09 11:44:10;;;;;;;14.23;4.47;;;921.90;1049.60;;;;;;4950370;29;20024;-73
2023/09/09 11:46:40;;;;;;;11.80;4.78;;;921.80;1049.60;;;;;;4946678;29;20067;-73
2023/09/09 11:49:07;;;;;;;11.75;4.78;;;921.60;1049.60;;;;;;4939875;29;20047;-73
2023/09/09 11:51:34;;;;;;;13.52;4.15;;;921.90;1049.60;;;;;;4939952;29;20034;-75
2023/09/09 11:54:00;;;;;;;10.38;4.50;;;896.90;998.40;;;;;;4942698;29;20046;-71
2023/09/09 11:56:27;;;;;;;8.90;3.85;;;921.60;1049.60;;;;;;4939803;29;20031;-71
2023/09/09 11:58:53;;;;;;;7.88;3.92;;;921.60;1049.60;;;;;;4939700;29;20503;-71
2023/09/09 12:01:20;;;;;;;7.68;4.28;;;896.80;1024.00;;;;;;4948839;29;20042;-70
2023/09/09 12:03:49;;;;;;;12.27;4.10;;;896.60;1024.00;;;;;;4944431;29;20027;-72
2023/09/09 12:06:18;;;;;;;9.93;4.25;;;896.70;1049.60;;;;;;4947332;29;20171;-73
2023/09/09 12:08:45;;;;;;;8.75;4.20;;;896.70;1024.00;;;;;;4941768;29;20019;-73